Time;durP1;ratioP1;P1;durP2;ratioP2;P2;SDS_P1;SDS_P2;PMS_P1;PMS_P2;Temp;Humidity;BMP_temperature;BMP_pressure;BME280_temperature;BME280_humidity;BME280_pressure;Samples;Min_cycle;Max_cycle;Signal;HPM_P1;HPM_P2
2021/06/29 00:00:06;;;;;;;;;;;15.70;1.40;;;17.05;100.00;95274.38;654627;212;24734;-70
2021/06/29 00:02:52;;;;;;;;;;;15.70;1.40;;;17.07;100.00;95279.80;655155;212;24910;-70
2021/06/29 00:05:33;;;;;;;;;;;15.80;1.40;;;17.12;100.00;95284.33;647346;215;25238;-71
2021/06/29 00:08:15;;;;;;;;;;;15.80;1.40;;;17.15;100.00;95280.84;653325;212;24743;-71
2021/06/29 00:10:56;;;;;;;;;;;15.80;1.40;;;17.19;100.00;95280.08;649851;215;25484;-71
2021/06/29 00:13:37;;;;;;;;;;;15.80;1.40;;;17.20;100.00;95283.41;652932;212;24830;-70
2021/06/29 00:16:19;;;;;;;;;;;15.80;1.40;;;17.21;100.00;95290.23;653297;212;25715;-70
2021/06/29 00:19:00;;;;;;;;;;;15.80;1.40;;;17.17;100.00;95293.39;656082;212;24833;-70
2021/06/29 00:21:41;;;;;;;;;;;15.80;1.40;;;17.16;100.00;95294.33;655983;212;24899;-69
2021/06/29 00:24:23;;;;;;;;;;;15.80;1.40;;;17.27;100.00;95299.96;654231;212;25014;-70
2021/06/29 00:27:04;;;;;;;;;;;15.80;1.40;;;17.16;100.00;95298.44;652534;216;24723;-71
2021/06/29 00:29:45;;;;;;;;;;;15.80;1.40;;;17.13;100.00;95292.84;653924;216;25285;-71
2021/06/29 00:32:27;;;;;;;;;;;15.80;1.40;;;-143.44;100.00;122422.95;653450;216;24846;-71
2021/06/29 00:35:53;;;;;;;6.97;6.10;;;15.80;1.40;;;;;;648491;212;42430;-71
2021/06/29 00:38:34;;;;;;;7.43;6.83;;;15.80;1.40;;;;;;646172;216;31561;-71
2021/06/29 00:41:16;;;;;;;7.37;6.73;;;15.70;1.40;;;;;;650496;216;31596;-71
2021/06/29 00:46:31;;;;;;;6.70;5.90;;;15.80;1.40;;;;;;647235;212;31788;-71
2021/06/29 00:49:12;;;;;;;6.60;6.10;;;15.90;1.40;;;;;;647217;216;31543;-72
2021/06/29 00:51:53;;;;;;;7.57;6.78;;;15.90;1.40;;;;;;647474;212;31580;-71
2021/06/29 00:54:34;;;;;;;6.70;6.20;;;15.90;1.40;;;;;;647241;216;31545;-71
2021/06/29 00:57:15;;;;;;;6.90;6.30;;;15.90;1.40;;;;;;648091;216;31736;-71
2021/06/29 00:59:56;;;;;;;6.43;5.83;;;15.90;1.40;;;;;;647549;216;31560;-70
2021/06/29 01:02:38;;;;;;;7.27;6.67;;;15.90;1.40;;;;;;648810;212;31530;-72
2021/06/29 01:05:18;;;;;;;7.00;6.40;;;15.90;1.40;;;;;;619047;222;31871;-72
2021/06/29 01:08:00;;;;;;;6.30;5.70;;;15.90;1.40;;;;;;644829;212;31589;-72
2021/06/29 01:10:41;;;;;;;7.12;6.43;;;15.90;1.40;;;;;;646994;212;31508;-70
2021/06/29 01:13:28;;;;;;;6.63;6.03;;;16.00;1.40;;;;;;646405;216;31584;-71
2021/06/29 01:16:09;;;;;;;6.28;5.78;;;16.00;1.40;;;;;;644801;216;31545;-71
2021/06/29 01:18:53;;;;;;;7.00;6.43;;;16.00;1.40;;;;;;647262;216;31611;-71
2021/06/29 01:21:39;;;;;;;6.57;6.00;;;16.00;1.40;;;;;;647202;212;31613;-71
2021/06/29 01:24:20;;;;;;;6.90;6.30;;;16.00;1.40;;;;;;646288;213;31570;-71
2021/06/29 01:32:50;;;;;;;6.57;5.97;;;16.00;1.40;;;;;;618222;222;32524;-71
2021/06/29 01:35:51;;;;;;;6.25;5.75;;;16.00;1.40;;;17.30;100.00;95307.15;647775;216;31624;-71
2021/06/29 01:38:33;;;;;;;6.93;6.32;;;15.90;1.40;;;17.29;100.00;95306.83;649430;212;31551;-71
2021/06/29 01:41:15;;;;;;;6.50;6.00;;;15.90;1.40;;;17.25;100.00;95311.17;646968;212;31675;-72
2021/06/29 01:44:01;;;;;;;6.70;6.10;;;15.80;1.40;;;17.24;100.00;95314.99;644795;212;31514;-71
2021/06/29 01:46:40;;;;;;;6.65;6.15;;;15.80;1.40;;;17.24;100.00;95313.59;645621;212;31875;-71
2021/06/29 01:49:24;;;;;;;7.28;6.50;;;15.80;1.40;;;17.27;100.00;95325.08;649601;212;31882;-71
2021/06/29 01:52:06;;;;;;;7.20;6.60;;;15.80;1.40;;;17.31;100.00;95325.94;646787;216;31612;-71
2021/06/29 01:54:47;;;;;;;6.80;6.20;;;15.90;1.40;;;17.35;100.00;95327.35;651080;216;31619;-71
2021/06/29 01:57:29;;;;;;;6.68;6.07;;;15.90;1.40;;;17.38;100.00;95336.41;647450;212;31543;-71
2021/06/29 02:00:13;;;;;;;7.50;6.80;;;15.90;1.40;;;17.41;100.00;95335.06;648670;216;31804;-71
2021/06/29 02:02:53;;;;;;;6.90;6.30;;;16.00;1.40;;;17.44;100.00;95337.17;647854;216;33238;-70
2021/06/29 02:05:35;;;;;;;6.82;6.32;;;16.00;1.40;;;17.44;100.00;95333.14;648354;212;31546;-71
2021/06/29 02:08:16;;;;;;;6.70;6.00;;;16.00;1.40;;;17.51;100.00;95326.23;648078;212;31530;-70
2021/06/29 02:10:58;;;;;;;6.90;6.30;;;16.00;1.40;;;17.48;100.00;95317.47;648397;216;31804;-71
2021/06/29 02:13:40;;;;;;;9.65;8.00;;;16.00;1.40;;;17.61;100.00;95300.97;648057;212;31529;-71
2021/06/29 02:18:56;;;;;;;8.43;7.70;;;16.00;1.40;;;17.54;100.00;95306.39;649213;216;31580;-70
2021/06/29 02:21:37;;;;;;;7.90;7.30;;;15.90;1.40;;;17.51;100.00;95296.76;645126;213;31531;-71
2021/06/29 02:24:19;;;;;;;8.63;7.93;;;15.90;1.40;;;17.56;100.00;95285.17;648921;216;31556;-71
2021/06/29 02:27:01;;;;;;;9.00;8.20;;;15.90;1.40;;;17.53;100.00;95289.81;647221;212;31541;-71
2021/06/29 02:29:42;;;;;;;8.07;7.45;;;15.80;1.40;;;17.40;100.00;95305.50;646160;216;31551;-70
2021/06/29 02:35:54;;;;;;;8.60;7.90;;;15.80;1.40;;;17.32;100.00;95319.66;646823;216;31609;-72
2021/06/29 02:38:36;;;;;;;9.50;8.70;;;15.90;1.40;;;17.45;100.00;95318.42;650081;216;37083;-71
2021/06/29 02:41:20;;;;;;;9.27;8.48;;;15.90;1.40;;;17.45;100.00;95320.97;621202;222;43054;-71
2021/06/29 02:44:02;;;;;;;8.90;8.20;;;15.90;1.40;;;17.50;100.00;95316.53;645021;216;32155;-71
2021/06/29 02:46:44;;;;;;;9.07;8.27;;;15.90;1.40;;;17.49;100.00;95330.92;649289;216;32195;-71
2021/06/29 02:49:25;;;;;;;9.27;8.55;;;15.90;1.40;;;17.43;100.00;95339.59;645876;212;41048;-71
2021/06/29 02:52:07;;;;;;;7.68;7.05;;;16.00;1.40;;;17.44;100.00;95336.22;644793;212;31682;-71
2021/06/29 02:54:49;;;;;;;8.15;7.45;;;16.00;1.40;;;17.41;100.00;95331.23;645837;212;36094;-71
2021/06/29 02:57:31;;;;;;;7.90;7.20;;;15.90;1.40;;;17.45;100.00;95332.20;648585;212;31550;-71
2021/06/29 03:00:14;;;;;;;8.07;7.37;;;15.90;1.40;;;17.39;100.00;95323.63;620781;223;40509;-72
2021/06/29 03:03:04;;;;;;;6.80;6.30;;;15.90;1.40;;;17.35;100.00;95313.70;645277;216;31610;-71
2021/06/29 03:05:46;;;;;;;7.00;6.40;;;15.90;1.40;;;17.33;100.00;95312.47;645989;212;40371;-71
2021/06/29 03:08:31;;;;;;;7.18;6.50;;;15.90;1.40;;;-143.44;100.00;122422.95;647079;212;31658;-70
2021/06/29 03:11:12;;;;;;;7.50;6.90;;;15.80;1.40;;;;;;646605;215;31978;-72
2021/06/29 03:13:53;;;;;;;7.03;6.53;;;15.80;1.40;;;;;;646136;216;31554;-72
2021/06/29 03:16:34;;;;;;;6.77;6.10;;;15.80;1.40;;;;;;644861;212;31556;-70
2021/06/29 03:19:15;;;;;;;7.07;6.47;;;15.80;1.40;;;;;;619967;222;31899;-71
2021/06/29 03:21:56;;;;;;;6.63;6.03;;;15.70;1.40;;;;;;645279;212;31711;-71
2021/06/29 03:24:37;;;;;;;6.20;5.80;;;15.70;1.40;;;;;;649151;216;31681;-71
2021/06/29 03:27:18;;;;;;;6.73;6.23;;;15.70;1.40;;;;;;643921;215;31862;-70
2021/06/29 03:30:02;;;;;;;6.30;5.80;;;15.70;1.40;;;;;;616679;222;31887;-73
2021/06/29 03:32:43;;;;;;;6.20;5.70;;;15.70;1.40;;;;;;648104;216;40321;-71
2021/06/29 03:35:51;;;;;;;6.60;6.00;;;15.70;1.40;;;17.10;100.00;95297.23;647753;216;31671;-72
2021/06/29 03:38:33;;;;;;;6.20;5.70;;;15.70;1.40;;;-143.44;100.00;122422.95;649717;212;31606;-71
2021/06/29 03:41:14;;;;;;;5.80;5.30;;;15.70;1.40;;;;;;648824;212;31587;-71
2021/06/29 03:43:55;;;;;;;6.03;5.53;;;15.70;1.40;;;;;;646953;212;31540;-72
2021/06/29 03:46:36;;;;;;;5.90;5.40;;;15.70;1.40;;;;;;648905;212;31586;-71
2021/06/29 03:49:17;;;;;;;6.97;6.27;;;15.60;1.40;;;;;;645043;212;31586;-72
2021/06/29 03:51:58;;;;;;;7.00;6.30;;;15.60;1.40;;;;;;647744;212;31577;-71
2021/06/29 03:54:39;;;;;;;6.97;6.22;;;15.60;1.40;;;;;;648708;216;31804;-71
2021/06/29 03:57:20;;;;;;;6.80;6.20;;;15.70;1.40;;;;;;645349;216;31456;-72
2021/06/29 04:00:01;;;;;;;6.50;6.00;;;15.70;1.40;;;;;;646225;216;31582;-71
2021/06/29 04:02:42;;;;;;;6.50;5.90;;;15.80;1.40;;;;;;646786;212;31594;-71
2021/06/29 04:05:23;;;;;;;6.90;6.20;;;15.80;1.40;;;;;;647283;216;31680;-71
2021/06/29 04:08:07;;;;;;;5.45;4.97;;;15.80;1.40;;;;;;647563;216;31539;-71
2021/06/29 04:10:48;;;;;;;7.05;5.12;;;15.90;1.40;;;;;;645431;215;31777;-70
2021/06/29 04:13:29;;;;;;;5.13;4.63;;;15.90;1.40;;;;;;647804;212;31655;-70
2021/06/29 04:16:13;;;;;;;5.10;4.70;;;15.90;1.40;;;;;;647052;216;31572;-71
2021/06/29 04:18:55;;;;;;;4.60;4.30;;;16.00;1.40;;;;;;646514;216;31572;-70
2021/06/29 04:21:36;;;;;;;4.43;4.03;;;16.00;1.40;;;;;;646176;212;31636;-71
2021/06/29 04:24:17;;;;;;;3.83;3.50;;;16.00;1.40;;;;;;648310;216;31657;-71
2021/06/29 04:26:58;;;;;;;4.30;4.00;;;16.00;1.40;;;;;;646709;215;31639;-71
2021/06/29 04:29:39;;;;;;;5.20;4.43;;;16.00;1.40;;;;;;647228;216;31603;-72
2021/06/29 04:32:20;;;;;;;4.37;3.92;;;16.00;1.40;;;;;;645446;215;31626;-71
2021/06/29 04:35:51;;;;;;;4.50;4.18;;;16.00;1.40;;;17.56;100.00;95274.97;646459;212;31572;-71
2021/06/29 04:38:33;;;;;;;4.80;4.30;;;16.10;1.40;;;-143.44;100.00;122422.95;645781;212;40600;-71
2021/06/29 04:41:14;;;;;;;4.22;3.92;;;16.10;1.40;;;;;;645891;212;42204;-71
2021/06/29 04:43:55;;;;;;;4.60;4.30;;;16.10;1.40;;;;;;644434;216;31583;-71
2021/06/29 04:46:36;;;;;;;4.20;3.90;;;16.10;1.40;;;;;;647342;216;31658;-72
2021/06/29 04:49:20;;;;;;;4.43;4.03;;;16.10;1.40;;;;;;618996;222;32148;-72
2021/06/29 04:51:59;;;;;;;4.47;4.07;;;16.20;1.40;;;;;;645729;212;32168;-72
2021/06/29 04:54:40;;;;;;;4.37;4.07;;;16.30;1.40;;;;;;646022;212;31587;-71
2021/06/29 04:59:55;;;;;;;4.63;4.20;;;16.40;1.40;;;;;;647260;212;32238;-71
2021/06/29 05:02:39;;;;;;;4.73;3.90;;;16.40;1.40;;;;;;646299;212;31970;-71
2021/06/29 05:07:48;;;;;;;4.00;3.70;;;16.50;1.40;;;;;;645746;216;32501;-71
2021/06/29 05:10:29;;;;;;;4.10;3.70;;;16.40;1.40;;;;;;648207;212;32705;-71
2021/06/29 05:13:10;;;;;;;4.10;3.10;;;16.40;1.40;;;;;;647520;216;31671;-72
2021/06/29 05:15:57;;;;;;;3.95;3.65;;;16.40;1.40;;;;;;644422;216;31923;-72
2021/06/29 05:18:44;;;;;;;4.25;3.90;;;16.40;1.40;;;;;;645356;216;31573;-71
2021/06/29 05:24:08;;;;;;;4.40;4.00;;;16.40;1.40;;;;;;617415;222;32428;-72
2021/06/29 05:26:50;;;;;;;5.93;4.37;;;16.40;1.40;;;;;;645519;216;31621;-72
2021/06/29 05:32:08;;;;;;;5.60;4.55;;;16.30;1.40;;;;;;648963;212;31576;-72
2021/06/29 05:35:51;;;;;;;6.25;4.87;;;16.20;1.40;;;17.62;100.00;95332.93;619679;226;31903;-71
2021/06/29 05:38:33;;;;;;;6.32;4.80;;;16.30;1.40;;;17.61;100.00;95335.06;646183;216;31582;-71
2021/06/29 05:41:14;;;;;;;7.45;5.50;;;16.20;1.40;;;17.43;100.00;95333.46;646046;212;42636;-72
2021/06/29 05:43:59;;;;;;;6.12;5.07;;;16.10;1.40;;;17.41;100.00;95336.45;647640;216;42200;-72
2021/06/29 05:46:41;;;;;;;6.57;5.90;;;16.00;1.40;;;17.48;100.00;95341.17;645183;212;41437;-71
2021/06/29 05:49:22;;;;;;;4.53;4.12;;;16.10;1.40;;;17.42;100.00;95348.75;644391;216;42220;-71
2021/06/29 05:52:10;;;;;;;4.22;3.83;;;16.20;1.40;;;17.40;100.00;95347.31;618119;226;43448;-71
2021/06/29 05:54:58;;;;;;;4.10;3.80;;;16.30;1.40;;;17.41;100.00;95348.55;646022;216;36128;-72
2021/06/29 05:57:42;;;;;;;4.30;4.00;;;16.40;1.40;;;17.39;100.00;95337.69;648157;216;31713;-71
2021/06/29 06:00:23;;;;;;;6.20;4.90;;;16.40;1.40;;;17.45;100.00;95329.36;647581;212;42443;-72
2021/06/29 06:03:07;;;;;;;5.12;4.72;;;16.40;1.40;;;17.62;100.00;95341.73;619433;225;32125;-70
2021/06/29 06:05:55;;;;;;;4.90;4.50;;;16.40;1.40;;;17.63;100.00;95338.66;648482;212;42204;-72
2021/06/29 06:10:26;;;;;;;4.70;4.40;;;16.40;1.40;;;17.71;100.00;95332.97;645623;212;31598;-71
2021/06/29 06:13:09;;;;;;;;;;;16.30;1.40;;;17.69;100.00;95336.79;653606;212;24983;-71
2021/06/29 06:15:58;;;;;;;;;;;16.30;1.40;;;17.64;100.00;95330.88;656259;212;24817;-71
2021/06/29 06:18:39;;;;;;;;;;;16.30;1.40;;;17.77;100.00;95327.92;652948;216;24727;-71
2021/06/29 06:21:21;;;;;;;;;;;16.30;1.40;;;17.70;100.00;95324.37;651870;212;24831;-71
2021/06/29 06:24:03;;;;;;;;;;;16.30;1.40;;;17.56;100.00;95320.95;652521;216;25092;-70
2021/06/29 06:26:44;;;;;;;;;;;16.30;1.40;;;17.61;100.00;95316.19;653754;216;24819;-72
2021/06/29 06:29:25;;;;;;;;;;;16.30;1.40;;;17.54;100.00;95314.11;655900;212;24848;-72
2021/06/29 06:32:09;;;;;;;;;;;16.40;1.40;;;17.50;100.00;95312.83;652603;216;24820;-71
2021/06/29 06:35:52;;;;;;;;;;;16.60;1.40;;;17.52;100.00;95305.27;653420;216;24823;-72
2021/06/29 06:38:33;;;;;;;;;;;16.60;1.40;;;17.60;100.00;95308.75;655609;216;24833;-71
2021/06/29 06:41:15;;;;;;;;;;;16.50;1.40;;;17.65;100.00;95307.56;648479;214;24835;-72
2021/06/29 06:43:58;;;;;;;;;;;16.60;1.40;;;17.70;100.00;95294.96;653244;212;24823;-70
2021/06/29 06:46:39;;;;;;;;;;;16.50;1.40;;;17.73;100.00;95291.71;652703;212;24858;-71
2021/06/29 06:49:21;;;;;;;;;;;16.50;1.40;;;17.73;100.00;95289.00;648000;215;24815;-71
2021/06/29 06:52:08;;;;;;;;;;;16.50;1.40;;;17.77;100.00;95273.87;654371;216;24824;-71
2021/06/29 06:54:49;;;;;;;;;;;16.60;1.40;;;17.93;100.00;95273.41;651938;216;25389;-71
2021/06/29 06:57:31;;;;;;;;;;;16.80;1.40;;;18.09;100.00;95271.47;651784;216;24827;-72
2021/06/29 07:00:14;;;;;;;;;;;16.80;1.40;;;18.23;100.00;95277.05;647988;217;24811;-71
2021/06/29 07:03:02;;;;;;;;;;;17.00;1.40;;;18.33;100.00;95266.62;649597;216;25053;-72
2021/06/29 07:05:48;;;;;;;;;;;17.10;1.40;;;18.30;100.00;95262.38;652670;216;24976;-72
2021/06/29 07:08:29;;;;;;;;;;;17.00;1.40;;;18.31;100.00;95253.16;653346;216;24812;-71
2021/06/29 07:11:16;;;;;;;;;;;16.90;1.40;;;18.40;100.00;95247.05;654961;216;25247;-71
2021/06/29 07:13:58;;;;;;;;;;;16.90;1.40;;;18.15;100.00;95235.90;648063;217;24977;-71
2021/06/29 07:16:48;;;;;;;;;;;16.80;1.40;;;18.10;100.00;95224.34;651044;216;24817;-71
2021/06/29 07:19:29;;;;;;;;;;;16.80;1.40;;;18.26;100.00;95222.73;655111;216;24819;-71
2021/06/29 07:22:11;;;;;;;;;;;17.00;1.40;;;18.43;100.00;95225.45;654748;216;24815;-71
2021/06/29 07:24:58;;;;;;;;;;;17.20;1.40;;;18.74;100.00;95219.61;651021;212;24793;-71
2021/06/29 07:27:45;;;;;;;;;;;17.50;1.40;;;18.91;100.00;95218.45;653878;216;24818;-72
2021/06/29 07:30:33;;;;;;;;;;;17.70;1.40;;;19.11;100.00;95213.65;649272;215;25297;-71
2021/06/29 07:38:25;;;;;;;2.30;2.10;;;18.20;1.40;;;19.65;100.00;95178.60;648383;216;31555;-72
2021/06/29 07:41:13;;;;;;;2.00;1.80;;;18.40;1.40;;;19.81;100.00;95167.47;646771;216;31792;-72
2021/06/29 07:44:01;;;;;;;1.77;1.67;;;18.60;1.40;;;19.96;94.83;95159.36;646833;216;31557;-71
2021/06/29 07:46:48;;;;;;;2.25;2.00;;;18.80;1.40;;;20.13;100.00;95160.72;618604;226;31884;-71
2021/06/29 07:49:36;;;;;;;2.03;1.83;;;18.90;1.40;;;20.41;99.15;95158.12;647163;216;31647;-71
2021/06/29 07:52:18;;;;;;;2.75;2.10;;;19.10;1.40;;;20.49;95.55;95162.85;646474;212;42834;-71
2021/06/29 07:55:01;;;;;;;1.85;1.62;;;19.30;1.40;;;20.54;91.22;95153.37;645939;216;31592;-73
2021/06/29 07:57:43;;;;;;;2.90;1.70;;;19.40;1.40;;;20.74;89.40;95155.92;646528;216;31902;-71
2021/06/29 08:00:31;;;;;;;2.00;1.60;;;19.50;1.40;;;20.78;89.13;95163.19;645647;214;31549;-71
2021/06/29 08:03:18;;;;;;;2.03;1.40;;;19.60;1.40;;;20.85;91.54;95164.38;647692;212;42792;-72
2021/06/29 08:06:06;;;;;;;1.90;1.80;;;19.60;1.40;;;20.97;86.56;95167.12;649420;216;32588;-72
2021/06/29 08:08:54;;;;;;;1.75;1.50;;;19.70;1.40;;;21.18;88.06;95164.38;648893;212;31558;-71
2021/06/29 08:11:37;;;;;;;1.90;1.80;;;20.10;1.40;;;21.35;89.67;95158.02;618347;222;31896;-71
2021/06/29 08:14:28;;;;;;;1.50;1.40;;;20.20;1.40;;;21.44;86.98;95161.42;641555;217;31649;-72
2021/06/29 08:17:10;;;;;;;1.40;1.30;;;20.30;1.40;;;21.24;81.54;95161.43;646302;216;31705;-72
2021/06/29 08:19:57;;;;;;;2.67;1.87;;;20.10;1.40;;;21.28;81.99;95151.80;618853;222;31826;-71
2021/06/29 08:22:39;;;;;;;1.60;1.50;;;20.20;1.40;;;21.53;84.40;95138.30;646967;216;31541;-72
2021/06/29 08:25:21;;;;;;;1.90;1.70;;;20.40;1.40;;;21.67;89.82;95126.70;647435;212;31536;-71
2021/06/29 08:28:03;;;;;;;1.80;1.67;;;20.60;1.40;;;21.81;83.35;95117.84;645872;212;31606;-71
2021/06/29 08:30:44;;;;;;;1.60;1.50;;;20.80;1.40;;;22.15;84.18;95116.66;648764;212;31545;-71
2021/06/29 08:35:51;;;;;;;1.70;1.60;;;21.20;1.40;;;22.44;75.63;95104.81;647569;214;31679;-71
2021/06/29 08:38:33;;;;;;;1.90;1.75;;;21.40;1.40;;;22.92;79.13;95097.63;619526;226;32007;-71
2021/06/29 08:41:21;;;;;;;1.80;1.40;;;21.80;1.40;;;22.92;74.98;95091.52;643387;213;31491;-71
2021/06/29 08:44:09;;;;;;;1.83;1.50;;;21.70;1.40;;;23.15;75.27;95083.72;644552;212;42301;-71
2021/06/29 08:46:50;;;;;;;1.60;1.50;;;21.80;1.40;;;23.54;70.90;95074.12;648403;216;31699;-71
2021/06/29 08:49:32;;;;;;;1.50;1.40;;;22.30;1.40;;;24.02;66.99;95077.33;645513;216;31772;-72
2021/06/29 08:52:14;;;;;;;1.53;1.40;;;22.70;1.40;;;24.11;66.25;95073.66;648268;216;31556;-72
2021/06/29 08:55:01;;;;;;;1.35;1.25;;;22.60;1.40;;;24.36;65.31;95079.42;647646;216;31573;-71
2021/06/29 08:57:43;;;;;;;2.00;1.80;;;22.70;1.40;;;24.45;65.43;95077.47;644304;216;31593;-72
2021/06/29 09:00:28;;;;;;;3.20;1.57;;;22.70;1.40;;;24.46;69.77;95073.58;647190;216;42163;-72
2021/06/29 09:03:11;;;;;;;1.60;1.50;;;22.90;1.40;;;24.58;70.22;95070.33;645100;216;31550;-72
2021/06/29 09:05:59;;;;;;;1.50;1.40;;;23.30;1.40;;;24.79;66.59;95069.23;645376;212;31528;-71
2021/06/29 09:08:41;;;;;;;1.80;1.50;;;23.30;1.40;;;24.18;66.77;95074.39;646923;216;31506;-70
2021/06/29 09:11:23;;;;;;;1.60;1.50;;;22.90;1.40;;;24.61;66.28;95063.16;647602;212;32158;-70
2021/06/29 09:14:08;;;;;;;12.73;3.35;;;23.40;1.40;;;25.21;71.78;95060.31;645022;216;32335;-70
2021/06/29 09:16:54;;;;;;;7.40;2.53;;;23.90;1.40;;;24.91;63.67;95055.25;647249;216;31913;-72
2021/06/29 09:19:38;;;;;;;2.87;1.20;;;23.60;1.40;;;25.03;62.32;95054.00;619764;222;31873;-71
2021/06/29 09:22:35;;;;;;;1.50;1.40;;;23.80;1.40;;;25.85;64.66;95045.31;646825;216;31515;-71
2021/06/29 09:25:27;;;;;;;1.80;1.10;;;24.60;1.40;;;25.25;57.62;95039.14;645678;216;31550;-71
2021/06/29 09:28:08;;;;;;;2.37;1.17;;;24.00;1.40;;;26.05;58.43;95035.27;648185;216;32434;-72
2021/06/29 09:30:58;;;;;;;1.90;1.60;;;24.90;1.40;;;26.69;56.17;95030.52;645912;216;31594;-71
2021/06/29 09:36:14;;;;;;;1.58;1.40;;;27.10;1.40;;;29.67;47.92;95015.72;645166;216;32147;-71
2021/06/29 09:38:55;;;;;;;2.85;1.40;;;27.80;1.40;;;29.11;49.89;95015.33;645391;212;32056;-72
2021/06/29 09:41:37;;;;;;;4.22;1.25;;;27.30;1.40;;;29.53;47.71;95013.61;617945;226;33094;-72
2021/06/29 09:44:23;;;;;;;4.03;1.42;;;27.20;1.40;;;30.58;48.00;95000.52;645775;216;31691;-71
2021/06/29 09:47:07;;;;;;;1.33;1.23;;;27.70;1.40;;;30.17;46.93;94996.42;645796;212;31560;-72
2021/06/29 09:49:56;;;;;;;1.62;1.50;;;27.40;1.40;;;30.94;44.76;95000.73;647167;216;31722;-71
2021/06/29 09:52:36;;;;;;;1.30;0.90;;;27.20;1.40;;;28.84;45.41;94989.00;646079;212;31519;-72
2021/06/29 09:55:18;;;;;;;1.52;1.30;;;26.50;1.40;;;29.79;43.31;94986.12;646657;216;31588;-72
2021/06/29 09:58:10;;;;;;;1.00;0.80;;;26.60;1.40;;;30.43;45.27;94983.20;643868;215;31547;-71
2021/06/29 10:00:53;;;;;;;0.90;0.90;;;27.50;1.40;;;33.13;45.27;94981.36;645236;212;31539;-71
2021/06/29 10:03:35;;;;;;;1.30;1.20;;;28.60;1.40;;;31.01;41.96;94975.23;646010;216;31733;-69
2021/06/29 10:06:25;;;;;;;1.20;1.00;;;26.90;1.40;;;28.69;44.08;94963.91;646307;212;31650;-69
2021/06/29 10:09:07;;;;;;;1.10;0.88;;;25.70;1.40;;;30.43;46.68;94956.31;648538;212;31578;-69
2021/06/29 10:11:52;;;;;;;1.20;1.10;;;26.50;1.40;;;28.47;47.18;94957.45;645279;212;31971;-70
2021/06/29 10:14:34;;;;;;;1.70;1.10;;;25.80;1.40;;;28.18;49.97;94952.24;644840;216;31686;-70
2021/06/29 10:17:15;;;;;;;1.20;1.10;;;25.70;1.40;;;27.89;48.47;94947.06;644599;212;32139;-71
2021/06/29 10:20:10;;;;;;;1.12;1.02;;;25.70;1.40;;;27.53;48.44;94943.34;621149;222;32418;-70
2021/06/29 10:22:41;;;;;;;2.15;1.10;;;25.50;1.40;;;28.74;49.80;94932.91;647962;212;31766;-69
2021/06/29 10:25:25;;;;;;;1.30;1.20;;;26.10;1.40;;;27.93;51.21;94937.38;645768;212;31537;-70
2021/06/29 10:28:07;;;;;;;1.65;1.00;;;25.80;1.40;;;28.10;49.94;94919.66;646739;216;32056;-69
2021/06/29 10:30:49;;;;;;;1.12;1.00;;;26.10;1.40;;;28.25;47.78;94917.81;646642;212;31625;-70
2021/06/29 10:35:52;;;;;;;1.20;0.95;;;25.50;1.40;;;27.50;47.84;94914.17;648968;212;31488;-68
2021/06/29 10:38:33;;;;;;;2.50;1.20;;;25.70;1.40;;;27.58;48.10;94903.78;645305;212;31498;-68
2021/06/29 10:41:15;;;;;;;2.40;1.00;;;25.70;1.40;;;28.22;46.71;94893.33;646896;212;31491;-69
2021/06/29 10:43:57;;;;;;;1.08;0.80;;;26.10;1.40;;;27.82;47.06;94888.50;650134;216;31500;-69
2021/06/29 10:46:41;;;;;;;1.30;1.00;;;25.90;1.40;;;28.03;49.48;94877.91;645940;212;31506;-69
2021/06/29 10:49:31;;;;;;;2.17;0.93;;;26.20;1.40;;;28.68;48.68;94877.75;646546;212;31497;-68
2021/06/29 10:52:38;;;;;;;2.90;1.10;;;26.80;1.40;;;27.38;45.01;94876.80;646609;216;31572;-69
2021/06/29 10:55:22;;;;;;;0.90;0.90;;;25.80;1.40;;;27.98;45.82;94865.10;644944;212;32110;-70
2021/06/29 10:58:04;;;;;;;1.62;1.30;;;26.20;1.40;;;29.65;48.80;94856.87;647495;216;31785;-69
2021/06/29 11:00:46;;;;;;;1.30;1.20;;;27.20;1.40;;;29.39;45.27;94857.47;652353;216;31640;-70
2021/06/29 11:03:27;;;;;;;1.45;1.35;;;26.70;1.40;;;31.14;43.68;94857.19;645736;212;31591;-71
2021/06/29 11:06:11;;;;;;;1.80;1.10;;;27.60;1.40;;;32.94;39.23;94844.52;646053;216;32225;-73
2021/06/29 11:08:58;;;;;;;1.60;1.02;;;28.20;1.40;;;32.27;39.39;94847.87;646567;216;31687;-71
2021/06/29 11:11:36;;;;;;;1.50;1.40;;;28.00;1.40;;;31.40;38.98;94836.15;622020;222;31848;-72
2021/06/29 11:14:34;;;;;;;1.33;1.00;;;26.80;1.40;;;32.65;38.86;94829.39;646360;216;31616;-71
2021/06/29 11:17:16;;;;;;;2.80;1.30;;;28.20;1.40;;;32.55;37.53;94833.91;648760;212;31535;-72
2021/06/29 11:20:06;;;;;;;0.90;0.90;;;27.80;1.40;;;33.66;39.01;94829.84;644171;216;31634;-71
2021/06/29 11:23:02;;;;;;;1.30;1.20;;;28.20;1.40;;;35.54;36.51;94818.11;648011;216;31602;-71
2021/06/29 11:25:47;;;;;;;1.15;1.05;;;29.40;1.40;;;35.06;34.09;94813.47;646706;216;31772;-72
2021/06/29 11:31:08;;;;;;;1.50;1.20;;;27.20;1.40;;;32.21;39.80;94810.84;646496;212;31754;-72
2021/06/29 11:35:51;;;;;;;2.20;1.30;;;27.00;1.40;;;31.34;41.67;94796.16;645258;216;31777;-71
2021/06/29 11:38:37;;;;;;;1.50;1.20;;;27.50;1.40;;;30.89;41.25;94789.33;647441;212;31527;-70
2021/06/29 11:41:33;;;;;;;1.55;1.20;;;26.90;1.40;;;31.95;41.61;94779.58;646845;212;31589;-71
2021/06/29 11:44:44;;;;;;;1.90;1.40;;;28.00;1.40;;;33.79;41.33;94768.11;648019;212;31658;-72
2021/06/29 11:47:29;;;;;;;1.40;1.30;;;29.00;1.40;;;36.51;36.50;94765.63;649132;212;31987;-71
2021/06/29 11:52:45;;;;;;;1.50;1.40;;;29.90;1.40;;;36.31;36.32;94765.37;646200;216;42224;-72
2021/06/29 11:55:29;;;;;;;1.50;1.40;;;30.20;1.40;;;35.50;33.89;94767.14;646532;212;31590;-72
2021/06/29 11:58:09;;;;;;;2.00;1.50;;;28.60;1.40;;;34.15;40.50;94758.72;647673;216;31585;-72
2021/06/29 12:00:58;;;;;;;1.70;1.60;;;28.90;1.40;;;36.70;36.45;94752.45;647838;216;31620;-73
2021/06/29 12:03:44;;;;;;;1.40;1.30;;;30.30;1.40;;;39.21;32.78;94738.13;646599;212;31642;-72
2021/06/29 12:06:26;;;;;;;1.77;1.67;;;31.40;1.40;;;39.69;32.59;94734.75;645571;216;31667;-71
2021/06/29 12:11:42;;;;;;;1.52;1.40;;;31.80;1.40;;;38.38;31.38;94732.06;647141;212;31865;-71
2021/06/29 12:14:27;;;;;;;1.87;1.60;;;29.70;1.40;;;35.73;34.02;94723.62;649566;216;31544;-71
2021/06/29 12:17:08;;;;;;;1.80;1.40;;;29.20;1.40;;;38.81;33.35;94700.72;646909;216;31526;-71
2021/06/29 12:19:50;;;;;;;1.95;1.50;;;30.50;1.40;;;37.93;34.71;94698.05;646492;212;31570;-72
2021/06/29 12:22:32;;;;;;;1.30;1.20;;;30.60;1.40;;;39.68;31.66;94695.03;648862;216;31523;-71
2021/06/29 12:25:18;;;;;;;1.50;1.40;;;30.90;1.40;;;39.42;30.83;94695.63;647262;212;31547;-72
2021/06/29 12:28:00;;;;;;;1.67;1.58;;;31.00;1.40;;;38.67;33.13;94681.08;647237;212;31622;-71
2021/06/29 12:30:44;;;;;;;1.30;1.20;;;30.50;1.40;;;39.37;33.70;94677.55;619624;222;31925;-72
2021/06/29 12:35:53;;;;;;;1.40;1.30;;;31.20;1.40;;;39.12;32.13;94665.98;647364;216;31652;-71
2021/06/29 12:38:41;;;;;;;1.60;1.50;;;31.30;1.40;;;39.95;32.41;94647.77;647634;216;31550;-71
2021/06/29 12:41:25;;;;;;;1.90;1.40;;;31.30;1.40;;;36.64;35.79;94657.67;648725;212;31772;-72
2021/06/29 12:44:07;;;;;;;1.92;1.20;;;29.80;1.40;;;36.08;37.08;94641.72;648843;212;32219;-72
2021/06/29 12:46:51;;;;;;;1.60;1.50;;;29.40;1.40;;;37.58;35.55;94636.63;648577;216;32042;-72
2021/06/29 12:49:33;;;;;;;1.90;1.60;;;30.00;1.40;;;38.35;34.66;94633.86;648637;216;31576;-72
2021/06/29 12:52:15;;;;;;;2.60;1.40;;;30.50;1.40;;;38.10;33.52;94632.92;645647;212;31563;-71
2021/06/29 12:55:03;;;;;;;1.80;1.70;;;30.60;1.40;;;39.53;34.54;94633.45;647134;216;31540;-71
2021/06/29 12:57:44;;;;;;;3.03;1.70;;;30.80;1.40;;;37.72;35.00;94622.09;649077;212;31587;-72
2021/06/29 13:00:29;;;;;;;1.45;1.35;;;30.20;1.40;;;37.87;33.47;94617.54;646775;212;31854;-72
2021/06/29 13:03:11;;;;;;;1.70;1.60;;;30.60;1.40;;;38.58;34.01;94615.45;647249;212;31539;-71
2021/06/29 13:08:27;;;;;;;1.87;1.77;;;31.40;1.40;;;38.47;34.14;94608.42;645134;216;31600;-70
2021/06/29 13:14:00;;;;;;;1.50;1.40;;;30.90;1.40;;;36.93;34.69;94600.73;646896;212;31657;-71